Epic Balta — 9VED8 — position and weather

sailwx.info

Track history (hours):
 
Tides and Currents Weather Stations Pressure Air Temp Water Temp Dewpoint Dewpoint Depression Visibility Wind Speed Wind Dir Waves Ship Positions

Epic Balta

Last reported at 2016-Apr-23 13:06 UTC. Time now 2016-Apr-29 15:57 UTC.
Position N 10°50' W 061°52'.

Length 100 m; draft 4.8 m.

Type: Ship. MMSI: 565525000.

Date/timePositionNaut miles runAvg speedWind from/ knotsBaromVisibWave heightAir tempDewpointWater temp
2016-Apr-23 13:06N 10°50' W 061°52'814.1
2016-Apr-23 12:34N 10°43' W 061°48'1313.4
2016-Apr-23 11:33N 10°32' W 061°41'1312.7
2016-Apr-23 10:33N 10°23' W 061°32'1 1.0
2016-Apr-23 09:33N 10°23' W 061°31'2 1.8
2016-Apr-23 08:30N 10°23' W 061°29'0 0.0
2016-Apr-23 07:33N 10°23' W 061°29'0 0.0
2016-Apr-23 06:30N 10°23' W 061°29'0 0.0
2016-Apr-23 05:33N 10°23' W 061°29'0 0.0
2016-Apr-23 04:30N 10°23' W 061°29'0 0.0
2016-Apr-23 03:30N 10°23' W 061°29'0 0.0
2016-Apr-23 02:30N 10°23' W 061°29'0 0.0
2016-Apr-23 01:33N 10°23' W 061°29'0 0.0
2016-Apr-23 00:33N 10°23' W 061°29'0 0.0
2016-Apr-22 23:33N 10°23' W 061°29'0 0.0
2016-Apr-22 22:33N 10°23' W 061°29'0 0.0
2016-Apr-22 21:33N 10°23' W 061°29'0 0.0
2016-Apr-22 20:30N 10°23' W 061°29'0 0.0
2016-Apr-22 19:30N 10°23' W 061°29'0 0.0
2016-Apr-22 18:27N 10°23' W 061°29'0 0.0
2016-Apr-22 17:33N 10°23' W 061°29'0 0.0
2016-Apr-22 16:33N 10°23' W 061°29'0 0.0
2016-Apr-22 15:33N 10°23' W 061°29'0 0.0
2016-Apr-22 14:33N 10°23' W 061°29'0 0.0
2016-Apr-22 13:30N 10°23' W 061°29'0 0.0
2016-Apr-22 12:33N 10°23' W 061°29'0 0.0
2016-Apr-22 11:30N 10°23' W 061°29'0 0.0
2016-Apr-22 10:33N 10°23' W 061°29'0 0.0
2016-Apr-22 09:30N 10°23' W 061°29'0 0.0
2016-Apr-22 08:33N 10°23' W 061°29'0 0.0
2016-Apr-22 07:30N 10°23' W 061°29'0 0.0
2016-Apr-22 06:30N 10°23' W 061°29'0 0.0
2016-Apr-22 05:33N 10°23' W 061°29'0 0.0
2016-Apr-22 04:30N 10°23' W 061°29'0 0.0
2016-Apr-22 03:30N 10°23' W 061°29'0 0.0
2016-Apr-22 02:33N 10°23' W 061°29'0 0.0
2016-Apr-22 01:33N 10°23' W 061°29'3 3.3
2016-Apr-22 00:33N 10°22' W 061°32'3 3.4
2016-Apr-21 23:33N 10°25' W 061°35'1010.0
2016-Apr-21 22:33N 10°33' W 061°41'1111.3
2016-Apr-21 21:33N 10°42' W 061°48'1110.7
2016-Apr-21 20:33N 10°50' W 061°54'33912.0
2016-Apr-20 16:24N 16°28' W 062°20'1113.2
2016-Apr-20 15:33N 16°40' W 062°21'1312.7
2016-Apr-20 14:33N 16°52' W 062°16'1313.4
2016-Apr-20 13:34N 17°01' W 062°07'1312.9
2016-Apr-20 12:34N 17°09' W 061°56'4 3.5
2016-Apr-20 11:31N 17°09' W 061°52'0 0.0
2016-Apr-20 10:31N 17°09' W 061°52'0 0.0
2016-Apr-20 09:31N 17°09' W 061°52'0 0.0
2016-Apr-20 08:31N 17°09' W 061°52'0 0.0
2016-Apr-20 07:31N 17°09' W 061°52'0 0.0
2016-Apr-20 06:31N 17°09' W 061°52'0 0.0
2016-Apr-20 05:31N 17°09' W 061°52'0 0.0
2016-Apr-20 04:31N 17°09' W 061°52'0 0.0
2016-Apr-20 03:31N 17°09' W 061°52'0 0.0
2016-Apr-20 02:31N 17°09' W 061°52'0 0.0
2016-Apr-20 01:31N 17°09' W 061°52'0 0.0
2016-Apr-20 00:31N 17°09' W 061°52'0 0.0
2016-Apr-19 23:31N 17°09' W 061°52'0 0.0
2016-Apr-19 22:31N 17°09' W 061°52'0 0.0
2016-Apr-19 21:31N 17°09' W 061°52'0 0.0
2016-Apr-19 20:31N 17°09' W 061°52'0 0.0
2016-Apr-19 19:31N 17°09' W 061°52'0 0.0
2016-Apr-19 18:31N 17°09' W 061°52'0 0.0
2016-Apr-19 17:31N 17°09' W 061°52'0 0.0
2016-Apr-19 16:31N 17°09' W 061°52'0 0.0
2016-Apr-19 15:31N 17°09' W 061°52'1 0.8
2016-Apr-19 14:34N 17°09' W 061°53'1 1.2
2016-Apr-19 13:34N 17°09' W 061°54'0 0.0
2016-Apr-19 12:34N 17°09' W 061°54'0 0.0
2016-Apr-19 11:33N 17°09' W 061°54'0 0.0
2016-Apr-19 10:33N 17°09' W 061°54'0 0.0
2016-Apr-19 09:34N 17°09' W 061°54'0 0.0
2016-Apr-19 08:33N 17°09' W 061°54'0 0.0
2016-Apr-19 07:33N 17°09' W 061°54'0 0.0
2016-Apr-19 06:34N 17°09' W 061°54'0 0.0
2016-Apr-19 05:33N 17°09' W 061°54'0 0.0
2016-Apr-19 04:33N 17°09' W 061°54'0 0.0
2016-Apr-19 03:33N 17°09' W 061°54'0 0.1
2016-Apr-19 02:33N 17°10' W 061°54'10 9.9
2016-Apr-19 01:33N 17°09' W 062°04'34 2.5
2016-Apr-18 11:32N 16°42' W 062°27'8313.5
2016-Apr-18 05:20N 15°31' W 061°41'  
Track history (hours):
 
Tides and Currents Weather Stations Pressure Air Temp Water Temp Dewpoint Dewpoint Depression Visibility Wind Speed Wind Dir Waves Ship Positions

Epic Balta

Last reported at 2016-Apr-23 13:06 UTC. Time now 2016-Apr-29 15:57 UTC.
Position N 10°50' W 061°52'.

Length 100 m; draft 4.8 m.

Type: Ship. MMSI: 565525000.

Date/timePositionNaut miles runAvg speedWind from/ knotsBaromVisibWave heightAir tempDewpointWater temp
2016-Apr-23 13:06N 10°50' W 061°52'814.1
2016-Apr-23 12:34N 10°43' W 061°48'1313.4
2016-Apr-23 11:33N 10°32' W 061°41'1312.7
2016-Apr-23 10:33N 10°23' W 061°32'1 1.0
2016-Apr-23 09:33N 10°23' W 061°31'2 1.8
2016-Apr-23 08:30N 10°23' W 061°29'0 0.0
2016-Apr-23 07:33N 10°23' W 061°29'0 0.0
2016-Apr-23 06:30N 10°23' W 061°29'0 0.0
2016-Apr-23 05:33N 10°23' W 061°29'0 0.0
2016-Apr-23 04:30N 10°23' W 061°29'0 0.0
2016-Apr-23 03:30N 10°23' W 061°29'0 0.0
2016-Apr-23 02:30N 10°23' W 061°29'0 0.0
2016-Apr-23 01:33N 10°23' W 061°29'0 0.0
2016-Apr-23 00:33N 10°23' W 061°29'0 0.0
2016-Apr-22 23:33N 10°23' W 061°29'0 0.0
2016-Apr-22 22:33N 10°23' W 061°29'0 0.0
2016-Apr-22 21:33N 10°23' W 061°29'0 0.0
2016-Apr-22 20:30N 10°23' W 061°29'0 0.0
2016-Apr-22 19:30N 10°23' W 061°29'0 0.0
2016-Apr-22 18:27N 10°23' W 061°29'0 0.0
2016-Apr-22 17:33N 10°23' W 061°29'0 0.0
2016-Apr-22 16:33N 10°23' W 061°29'0 0.0
2016-Apr-22 15:33N 10°23' W 061°29'0 0.0
2016-Apr-22 14:33N 10°23' W 061°29'0 0.0
2016-Apr-22 13:30N 10°23' W 061°29'0 0.0
2016-Apr-22 12:33N 10°23' W 061°29'0 0.0
2016-Apr-22 11:30N 10°23' W 061°29'0 0.0
2016-Apr-22 10:33N 10°23' W 061°29'0 0.0
2016-Apr-22 09:30N 10°23' W 061°29'0 0.0
2016-Apr-22 08:33N 10°23' W 061°29'0 0.0
2016-Apr-22 07:30N 10°23' W 061°29'0 0.0
2016-Apr-22 06:30N 10°23' W 061°29'0 0.0
2016-Apr-22 05:33N 10°23' W 061°29'0 0.0
2016-Apr-22 04:30N 10°23' W 061°29'0 0.0
2016-Apr-22 03:30N 10°23' W 061°29'0 0.0
2016-Apr-22 02:33N 10°23' W 061°29'0 0.0
2016-Apr-22 01:33N 10°23' W 061°29'3 3.3
2016-Apr-22 00:33N 10°22' W 061°32'3 3.4
2016-Apr-21 23:33N 10°25' W 061°35'1010.0
2016-Apr-21 22:33N 10°33' W 061°41'1111.3
2016-Apr-21 21:33N 10°42' W 061°48'1110.7
2016-Apr-21 20:33N 10°50' W 061°54'33912.0
2016-Apr-20 16:24N 16°28' W 062°20'1113.2
2016-Apr-20 15:33N 16°40' W 062°21'1312.7
2016-Apr-20 14:33N 16°52' W 062°16'1313.4
2016-Apr-20 13:34N 17°01' W 062°07'1312.9
2016-Apr-20 12:34N 17°09' W 061°56'4 3.5
2016-Apr-20 11:31N 17°09' W 061°52'0 0.0
2016-Apr-20 10:31N 17°09' W 061°52'0 0.0
2016-Apr-20 09:31N 17°09' W 061°52'0 0.0
2016-Apr-20 08:31N 17°09' W 061°52'0 0.0
2016-Apr-20 07:31N 17°09' W 061°52'0 0.0
2016-Apr-20 06:31N 17°09' W 061°52'0 0.0
2016-Apr-20 05:31N 17°09' W 061°52'0 0.0
2016-Apr-20 04:31N 17°09' W 061°52'0 0.0
2016-Apr-20 03:31N 17°09' W 061°52'0 0.0
2016-Apr-20 02:31N 17°09' W 061°52'0 0.0
2016-Apr-20 01:31N 17°09' W 061°52'0 0.0
2016-Apr-20 00:31N 17°09' W 061°52'0 0.0
2016-Apr-19 23:31N 17°09' W 061°52'0 0.0
2016-Apr-19 22:31N 17°09' W 061°52'0 0.0
2016-Apr-19 21:31N 17°09' W 061°52'0 0.0
2016-Apr-19 20:31N 17°09' W 061°52'0 0.0
2016-Apr-19 19:31N 17°09' W 061°52'0 0.0
2016-Apr-19 18:31N 17°09' W 061°52'0 0.0
2016-Apr-19 17:31N 17°09' W 061°52'0 0.0
2016-Apr-19 16:31N 17°09' W 061°52'0 0.0
2016-Apr-19 15:31N 17°09' W 061°52'1 0.8
2016-Apr-19 14:34N 17°09' W 061°53'1 1.2
2016-Apr-19 13:34N 17°09' W 061°54'0 0.0
2016-Apr-19 12:34N 17°09' W 061°54'0 0.0
2016-Apr-19 11:33N 17°09' W 061°54'0 0.0
2016-Apr-19 10:33N 17°09' W 061°54'0 0.0
2016-Apr-19 09:34N 17°09' W 061°54'0 0.0
2016-Apr-19 08:33N 17°09' W 061°54'0 0.0
2016-Apr-19 07:33N 17°09' W 061°54'0 0.0
2016-Apr-19 06:34N 17°09' W 061°54'0 0.0
2016-Apr-19 05:33N 17°09' W 061°54'0 0.0
2016-Apr-19 04:33N 17°09' W 061°54'0 0.0
2016-Apr-19 03:33N 17°09' W 061°54'0 0.1
2016-Apr-19 02:33N 17°10' W 061°54'10 9.9
2016-Apr-19 01:33N 17°09' W 062°04'34 2.5
2016-Apr-18 11:32N 16°42' W 062°27'8313.5
2016-Apr-18 05:20N 15°31' W 061°41'  

Dump ship's entire track history